createdAt,value
2022-08-25T00:02:24.320Z,100194.25
2022-08-25T00:05:14.923Z,100199.41
2022-08-25T00:08:05.844Z,100195.38
2022-08-25T00:11:03.233Z,100193.20
2022-08-25T00:13:55.268Z,100183.73
2022-08-25T00:16:43.636Z,100197.57
2022-08-25T00:19:37.972Z,100186.48
2022-08-25T00:22:26.210Z,100186.25
2022-08-25T00:25:14.383Z,100192.22
2022-08-25T00:28:07.800Z,100188.16
2022-08-25T00:30:58.179Z,100194.40
2022-08-25T00:33:47.722Z,100192.25
2022-08-25T00:36:36.692Z,100182.52
2022-08-25T00:39:25.718Z,100190.11
2022-08-25T00:42:16.273Z,100183.88
2022-08-25T00:45:06.881Z,100185.52
2022-08-25T00:47:58.961Z,100185.81
2022-08-25T00:50:48.744Z,100186.37
2022-08-25T00:53:36.968Z,100184.75
2022-08-25T00:56:25.691Z,100185.84
2022-08-25T00:59:15.853Z,100187.19
2022-08-25T01:02:05.572Z,100181.78
2022-08-25T01:04:57.743Z,100186.66
2022-08-25T01:07:46.568Z,100178.31
2022-08-25T01:10:36.687Z,100184.81
2022-08-25T01:13:31.344Z,100189.69
2022-08-25T01:16:20.613Z,100191.04
2022-08-25T01:19:11.983Z,100193.22
2022-08-25T01:22:05.699Z,100191.89
2022-08-25T01:25:02.704Z,100192.16
2022-08-25T01:27:51.646Z,100192.70
2022-08-25T01:30:40.338Z,100196.80
2022-08-25T01:33:28.409Z,100201.14
2022-08-25T01:36:19.985Z,100203.31
2022-08-25T01:39:08.941Z,100201.42
2022-08-25T01:42:28.665Z,100200.35
2022-08-25T01:45:17.917Z,100195.22
2022-08-25T01:48:08.066Z,100194.16
2022-08-25T01:50:56.001Z,100188.77
2022-08-25T01:53:44.285Z,100184.17
2022-08-25T01:56:32.672Z,100193.12
2022-08-25T01:59:24.056Z,100189.34
2022-08-25T02:02:12.885Z,100189.60
2022-08-25T02:05:01.576Z,100186.90
2022-08-25T02:07:49.737Z,100180.16
2022-08-25T02:10:37.745Z,100177.72
2022-08-25T02:13:31.091Z,100176.10
2022-08-25T02:16:24.502Z,100169.08
2022-08-25T02:19:13.367Z,100160.17
2022-08-25T02:22:02.549Z,100165.58
2022-08-25T02:24:51.203Z,100158.27
2022-08-25T02:27:39.823Z,100165.03
2022-08-25T02:30:28.066Z,100164.50
2022-08-25T02:33:15.858Z,100163.42
2022-08-25T02:36:05.546Z,100163.97
2022-08-25T02:38:53.825Z,100160.73
2022-08-25T02:41:42.212Z,100160.73
2022-08-25T02:44:31.247Z,100167.47
2022-08-25T02:47:19.677Z,100165.30
2022-08-25T02:50:15.334Z,100163.14
2022-08-25T02:53:03.888Z,100171.78
2022-08-25T02:55:52.215Z,100176.92
2022-08-25T02:58:41.893Z,100166.91
2022-08-25T03:01:31.614Z,100161.24
2022-08-25T03:04:19.725Z,100168.27
2022-08-25T03:07:08.041Z,100156.63
2022-08-25T03:09:56.595Z,100153.67
2022-08-25T03:12:45.963Z,100148.52
2022-08-25T03:15:37.174Z,100146.64
2022-08-25T03:18:26.323Z,100153.13
2022-08-25T03:21:15.910Z,100155.30
2022-08-25T03:24:05.217Z,100151.52
2022-08-25T03:26:55.168Z,100158.54
2022-08-25T03:29:43.444Z,100152.31
2022-08-25T03:32:32.059Z,100153.39
2022-08-25T03:35:21.191Z,100157.72
2022-08-25T03:38:09.580Z,100156.63
2022-08-25T03:40:57.855Z,100154.75
2022-08-25T03:43:48.233Z,100159.88
2022-08-25T03:46:40.418Z,100152.59
2022-08-25T03:49:28.908Z,100161.23
2022-08-25T03:52:18.845Z,100159.06
2022-08-25T03:55:10.700Z,100157.98
2022-08-25T03:57:59.307Z,100157.15
2022-08-25T04:00:47.353Z,100156.89
2022-08-25T04:03:35.731Z,100156.59
2022-08-25T04:06:24.177Z,100160.92
2022-08-25T04:09:12.783Z,100160.66
2022-08-25T04:12:01.223Z,100160.38
2022-08-25T04:14:49.817Z,100158.49
2022-08-25T04:17:39.901Z,100156.32
2022-08-25T04:20:28.592Z,100159.55
2022-08-25T04:23:16.916Z,100153.86
2022-08-25T04:26:09.762Z,100161.42
2022-08-25T04:28:59.459Z,100154.92
2022-08-25T04:31:49.812Z,100160.63
2022-08-25T04:34:38.528Z,100160.08
2022-08-25T04:37:26.871Z,100169.52
2022-08-25T04:40:14.856Z,100162.77
2022-08-25T04:43:03.205Z,100162.73
2022-08-25T04:45:52.175Z,100161.36
2022-08-25T04:48:40.717Z,100160.54
2022-08-25T04:51:33.621Z,100163.22
2022-08-25T04:54:22.274Z,100170.22
2022-08-25T04:57:10.887Z,100173.69
2022-08-25T04:59:59.452Z,100172.58
2022-08-25T05:02:47.394Z,100169.84
2022-08-25T05:05:37.936Z,100175.22
2022-08-25T05:08:26.645Z,100176.81
2022-08-25T05:11:17.691Z,100183.80
2022-08-25T05:14:10.926Z,100182.68
2022-08-25T05:16:59.439Z,100188.59
2022-08-25T05:19:48.464Z,100179.10
2022-08-25T05:22:36.634Z,100169.02
2022-08-25T05:25:25.191Z,100174.66
2022-08-25T05:28:14.467Z,100185.15
2022-08-25T05:31:04.771Z,100176.71
2022-08-25T05:33:55.295Z,100176.09
2022-08-25T05:36:43.984Z,100177.09
2022-08-25T05:39:33.341Z,100173.46
2022-08-25T05:42:21.959Z,100180.97
2022-08-25T05:45:15.825Z,100178.18
2022-08-25T05:48:08.418Z,100178.89
2022-08-25T05:50:59.677Z,100182.59
2022-08-25T05:53:49.951Z,100177.05
2022-08-25T05:56:39.587Z,100185.05
2022-08-25T05:59:27.905Z,100187.34
2022-08-25T06:02:34.788Z,100194.80
2022-08-25T06:05:23.729Z,100184.03
2022-08-25T06:08:12.986Z,100199.08
2022-08-25T06:11:01.023Z,100194.33
2022-08-25T06:13:49.567Z,100205.83
2022-08-25T06:16:38.676Z,100207.59
2022-08-25T06:19:27.308Z,100203.39
2022-08-25T06:22:15.617Z,100196.69
2022-08-25T06:25:04.943Z,100206.31
2022-08-25T06:27:54.996Z,100201.22
2022-08-25T06:30:43.114Z,100202.96
2022-08-25T06:33:31.700Z,100212.83
2022-08-25T06:36:20.066Z,100209.73
2022-08-25T06:39:10.503Z,100210.15
2022-08-25T06:41:59.812Z,100205.91
2022-08-25T06:44:48.600Z,100213.37
2022-08-25T06:47:36.817Z,100220.86
2022-08-25T06:50:25.153Z,100218.55
2022-08-25T06:53:13.750Z,100214.33
2022-08-25T06:56:06.477Z,100216.63
2022-08-25T06:58:54.772Z,100213.19
2022-08-25T07:01:44.049Z,100211.68
2022-08-25T07:04:33.273Z,100221.03
2022-08-25T07:07:21.166Z,100211.03
2022-08-25T07:10:11.021Z,100211.66
2022-08-25T07:12:59.433Z,100206.89
2022-08-25T07:15:47.821Z,100214.15
2022-08-25T07:18:37.039Z,100213.21
2022-08-25T07:21:31.233Z,100201.91
2022-08-25T07:24:23.076Z,100198.12
2022-08-25T07:27:11.168Z,100194.06
2022-08-25T07:30:00.061Z,100192.07
2022-08-25T07:32:55.074Z,100189.91
2022-08-25T07:35:44.107Z,100176.99
2022-08-25T07:38:32.093Z,100180.43
2022-08-25T07:41:26.140Z,100189.64
2022-08-25T07:44:14.448Z,100184.88
2022-08-25T07:47:02.555Z,100180.77
2022-08-25T07:49:51.989Z,100167.31
2022-08-25T07:52:40.731Z,100172.48
2022-08-25T07:55:30.321Z,100172.17
2022-08-25T07:58:18.721Z,100180.53
2022-08-25T08:01:07.950Z,100176.36
2022-08-25T08:03:58.371Z,100172.22
2022-08-25T08:06:48.953Z,100168.52
2022-08-25T08:09:37.870Z,100164.97
2022-08-25T08:12:27.231Z,100168.63
2022-08-25T08:15:15.397Z,100158.66
2022-08-25T08:18:04.215Z,100167.80
2022-08-25T08:20:55.676Z,100170.18
2022-08-25T08:23:43.889Z,100170.48
2022-08-25T08:26:55.299Z,100167.25
2022-08-25T08:29:41.755Z,100162.86
2022-08-25T08:32:36.689Z,100157.70
2022-08-25T08:35:34.907Z,100153.13
2022-08-25T08:38:27.118Z,100151.33
2022-08-25T08:42:11.131Z,100151.73
2022-08-25T08:45:23.787Z,100145.00
2022-08-25T08:48:50.019Z,100142.48
2022-08-25T08:51:47.717Z,100141.08
2022-08-25T08:54:41.342Z,100143.09
2022-08-25T08:57:35.713Z,100140.86
2022-08-25T09:00:25.025Z,100134.38
2022-08-25T09:03:26.494Z,100138.11
2022-08-25T09:06:22.483Z,100136.77
2022-08-25T09:09:14.576Z,100134.95
2022-08-25T09:12:23.785Z,100127.86
2022-08-25T09:15:21.731Z,100122.40
2022-08-25T09:18:23.708Z,100124.11
2022-08-25T09:21:17.570Z,100121.43
2022-08-25T09:24:27.279Z,100125.75
2022-08-25T09:27:25.821Z,100110.08
2022-08-25T09:30:17.440Z,100109.58
2022-08-25T09:33:06.035Z,100102.88
2022-08-25T09:35:57.338Z,100104.34
2022-08-25T09:38:46.166Z,100099.25
2022-08-25T09:41:44.769Z,100095.98
2022-08-25T09:44:39.070Z,100086.84
2022-08-25T09:47:28.076Z,100106.72
2022-08-25T09:50:19.680Z,100087.73
2022-08-25T09:53:18.534Z,100092.36
2022-08-25T09:56:11.912Z,100088.01
2022-08-25T09:59:21.299Z,100077.33
2022-08-25T10:02:25.198Z,100073.35
2022-08-25T10:05:23.318Z,100068.47
2022-08-25T10:08:14.662Z,100067.17
2022-08-25T10:11:08.839Z,100073.70
2022-08-25T10:14:04.627Z,100062.96
2022-08-25T10:17:10.999Z,100059.91
2022-08-25T10:20:17.669Z,100070.80
2022-08-25T10:23:14.502Z,100070.28
2022-08-25T10:26:10.472Z,100071.92
2022-08-25T10:29:12.690Z,100059.38
2022-08-25T10:32:03.883Z,100057.92
2022-08-25T10:34:54.053Z,100064.29
2022-08-25T10:37:47.324Z,100048.09
2022-08-25T10:40:46.155Z,100042.66
2022-08-25T10:43:43.101Z,100053.69
2022-08-25T10:46:41.402Z,100037.92
2022-08-25T10:49:37.778Z,100054.59
2022-08-25T10:52:37.688Z,100042.58
2022-08-25T10:55:33.617Z,100047.39
2022-08-25T10:58:42.716Z,100032.50
2022-08-25T11:01:44.755Z,100038.91
2022-08-25T11:04:39.890Z,100037.12
2022-08-25T11:07:35.636Z,100033.68
2022-08-25T11:10:31.817Z,100028.62
2022-08-25T11:13:42.787Z,100031.94
2022-08-25T11:16:38.384Z,100026.16
2022-08-25T11:19:32.726Z,100019.08
2022-08-25T11:22:29.958Z,100023.06
2022-08-25T11:25:23.823Z,100009.68
2022-08-25T11:28:18.376Z,100014.13
2022-08-25T11:31:08.930Z,100016.22
2022-08-25T11:33:59.151Z,100009.14
2022-08-25T11:36:55.403Z,100002.91
2022-08-25T11:40:16.772Z,99997.50
2022-08-25T11:43:24.569Z,99991.25
2022-08-25T11:46:35.210Z,99982.25
2022-08-25T11:49:49.236Z,99992.91
2022-08-25T11:52:53.353Z,99983.02
2022-08-25T11:55:51.122Z,99985.36
2022-08-25T11:58:46.543Z,99992.81
2022-08-25T12:02:09.939Z,99983.71
2022-08-25T12:04:58.386Z,99989.66
2022-08-25T12:08:20.113Z,99990.48
2022-08-25T12:11:11.454Z,99995.26
2022-08-25T12:14:15.993Z,99989.81
2022-08-25T12:17:22.015Z,99996.98
2022-08-25T12:20:10.635Z,100001.69
2022-08-25T12:23:00.704Z,100000.44
2022-08-25T12:25:53.559Z,99997.66
2022-08-25T12:28:56.532Z,100000.84
2022-08-25T12:32:05.007Z,100002.45
2022-08-25T12:35:17.323Z,100002.45
2022-08-25T12:38:10.861Z,100005.63
2022-08-25T12:41:04.523Z,100012.75
2022-08-25T12:44:08.945Z,100003.67
2022-08-25T12:47:12.786Z,99994.14
2022-08-25T12:50:27.616Z,99997.61
2022-08-25T12:53:33.287Z,99996.43
2022-08-25T12:56:27.868Z,99994.84
2022-08-25T12:59:21.264Z,99996.84
2022-08-25T13:02:52.044Z,99998.83
2022-08-25T13:06:26.420Z,100004.30
2022-08-25T13:09:58.145Z,100003.86
2022-08-25T13:12:50.997Z,100000.29
2022-08-25T13:15:44.458Z,100000.69
2022-08-25T13:18:36.280Z,100003.45
2022-08-25T13:21:30.951Z,99996.69
2022-08-25T13:24:23.808Z,99999.03
2022-08-25T13:27:22.764Z,99999.84
2022-08-25T13:30:24.413Z,99997.87
2022-08-25T13:33:21.835Z,100004.64
2022-08-25T13:36:36.144Z,99998.34
2022-08-25T13:39:45.402Z,99997.94
2022-08-25T13:42:42.386Z,100005.81
2022-08-25T13:45:41.239Z,99996.69
2022-08-25T13:48:35.847Z,99998.26
2022-08-25T13:51:31.458Z,99991.56
2022-08-25T13:54:27.616Z,100002.19
2022-08-25T13:57:22.278Z,99995.10
2022-08-25T14:00:25.575Z,99993.09
2022-08-25T14:03:35.613Z,99996.16
2022-08-25T14:06:25.780Z,99982.69
2022-08-25T14:09:17.632Z,99990.55
2022-08-25T14:12:06.289Z,99989.38
2022-08-25T14:15:01.010Z,99982.24
2022-08-25T14:18:03.175Z,99979.42
2022-08-25T14:20:55.151Z,99976.58
2022-08-25T14:23:44.033Z,99983.66
2022-08-25T14:26:32.089Z,99985.61
2022-08-25T14:29:22.469Z,99982.02
2022-08-25T14:32:11.337Z,99987.11
2022-08-25T14:35:01.758Z,99986.69
2022-08-25T14:37:57.073Z,99992.18
2022-08-25T14:40:45.751Z,99996.44
2022-08-25T14:43:34.057Z,99992.45
2022-08-25T14:46:24.868Z,99993.55
2022-08-25T14:49:17.334Z,99990.30
2022-08-25T14:52:19.591Z,99998.48
2022-08-25T14:55:12.814Z,99988.16
2022-08-25T14:58:25.925Z,99986.88
2022-08-25T15:01:17.128Z,99992.33
2022-08-25T15:04:09.431Z,99985.22
2022-08-25T15:07:01.070Z,99986.81
2022-08-25T15:09:51.109Z,99984.76
2022-08-25T15:12:47.295Z,99986.17
2022-08-25T15:15:52.425Z,99991.12
2022-08-25T15:18:41.786Z,99982.30
2022-08-25T15:21:30.793Z,99979.73
2022-08-25T15:24:21.991Z,99975.58
2022-08-25T15:27:10.150Z,99982.83
2022-08-25T15:29:58.538Z,99985.75
2022-08-25T15:32:48.575Z,99989.54
2022-08-25T15:35:36.900Z,99984.24
2022-08-25T15:38:24.985Z,99985.21
2022-08-25T15:41:14.482Z,99983.05
2022-08-25T15:44:03.616Z,99978.95
2022-08-25T15:46:52.036Z,99996.92
2022-08-25T15:49:40.785Z,99987.64
2022-08-25T15:52:44.488Z,99987.48
2022-08-25T15:55:39.809Z,99990.52
2022-08-25T15:58:27.979Z,99994.34
2022-08-25T16:01:18.068Z,99984.77
2022-08-25T16:04:07.635Z,99988.87
2022-08-25T16:06:56.440Z,99987.11
2022-08-25T16:09:47.091Z,99986.50
2022-08-25T16:12:36.898Z,99983.93
2022-08-25T16:15:28.684Z,99985.80
2022-08-25T16:18:17.584Z,99991.84
2022-08-25T16:21:12.697Z,99994.13
2022-08-25T16:24:07.189Z,99991.36
2022-08-25T16:27:11.416Z,99994.88
2022-08-25T16:30:00.474Z,99987.41
2022-08-25T16:32:48.922Z,99986.17
2022-08-25T16:35:40.563Z,99985.08
2022-08-25T16:38:29.396Z,99983.53
2022-08-25T16:41:21.770Z,99987.37
2022-08-25T16:44:11.180Z,99988.16
2022-08-25T16:46:59.942Z,99989.77
2022-08-25T16:49:47.880Z,99989.80
2022-08-25T16:52:54.568Z,99987.06
2022-08-25T16:55:42.920Z,99988.34
2022-08-25T16:58:32.619Z,99993.56
2022-08-25T17:01:21.887Z,99993.87
2022-08-25T17:04:11.857Z,99994.33
2022-08-25T17:07:02.134Z,99986.09
2022-08-25T17:09:50.518Z,99989.27
2022-08-25T17:12:39.467Z,99989.38
2022-08-25T17:15:28.721Z,99992.84
2022-08-25T17:18:17.468Z,99984.37
2022-08-25T17:21:08.298Z,99990.62
2022-08-25T17:23:56.805Z,99986.34
2022-08-25T17:26:47.327Z,99990.31
2022-08-25T17:29:37.800Z,99991.18
2022-08-25T17:32:28.729Z,100001.16
2022-08-25T17:35:19.359Z,100003.28
2022-08-25T17:38:10.757Z,100007.70
2022-08-25T17:41:02.469Z,100009.03
2022-08-25T17:43:53.316Z,99999.27
2022-08-25T17:46:47.370Z,100002.19
2022-08-25T17:49:36.963Z,100002.70
2022-08-25T17:52:25.112Z,99999.38
2022-08-25T17:55:14.062Z,100000.69
2022-08-25T17:58:04.045Z,100006.98
2022-08-25T18:00:52.028Z,100002.20
2022-08-25T18:03:40.495Z,100003.03
2022-08-25T18:06:31.125Z,100006.30
2022-08-25T18:09:19.610Z,100011.13
2022-08-25T18:12:08.192Z,100014.03
2022-08-25T18:14:56.533Z,100012.61
2022-08-25T18:17:47.067Z,100015.52
2022-08-25T18:20:35.571Z,100005.89
2022-08-25T18:23:23.921Z,100007.67
2022-08-25T18:26:13.377Z,100012.48
2022-08-25T18:29:01.527Z,100011.05
2022-08-25T18:31:52.037Z,100010.09
2022-08-25T18:34:41.377Z,100007.54
2022-08-25T18:37:47.694Z,100011.22
2022-08-25T18:40:37.209Z,100009.48
2022-08-25T18:43:26.145Z,100017.19
2022-08-25T18:46:15.804Z,100019.75
2022-08-25T18:49:04.595Z,100004.66
2022-08-25T18:51:52.846Z,100009.80
2022-08-25T18:54:41.403Z,100008.36
2022-08-25T18:57:29.857Z,100013.98
2022-08-25T19:00:21.551Z,100007.69
2022-08-25T19:03:10.577Z,100010.09
2022-08-25T19:06:00.172Z,100007.67
2022-08-25T19:08:49.379Z,100005.43
2022-08-25T19:11:38.979Z,100007.02
2022-08-25T19:14:28.063Z,100008.12
2022-08-25T19:17:17.081Z,100006.67
2022-08-25T19:20:11.283Z,99994.61
2022-08-25T19:23:00.255Z,99995.69
2022-08-25T19:25:49.234Z,100001.09
2022-08-25T19:28:37.500Z,100007.02
2022-08-25T19:31:26.699Z,100009.39
2022-08-25T19:34:19.659Z,100005.17
2022-08-25T19:37:10.006Z,100006.42
2022-08-25T19:39:59.912Z,100005.77
2022-08-25T19:42:49.235Z,100010.54
2022-08-25T19:45:42.858Z,100015.00
2022-08-25T19:48:31.536Z,100026.35
2022-08-25T19:51:21.914Z,100021.83
2022-08-25T19:54:11.474Z,100023.04
2022-08-25T19:57:00.000Z,100031.34
2022-08-25T19:59:48.768Z,100028.73
2022-08-25T20:02:38.047Z,100030.80
2022-08-25T20:05:29.261Z,100026.27
2022-08-25T20:08:17.505Z,100030.72
2022-08-25T20:11:18.125Z,100025.72
2022-08-25T20:14:08.059Z,100022.01
2022-08-25T20:16:56.894Z,100025.14
2022-08-25T20:19:45.065Z,100021.42
2022-08-25T20:22:34.102Z,100017.71
2022-08-25T20:25:25.090Z,100021.55
2022-08-25T20:28:19.061Z,100029.82
2022-08-25T20:31:07.896Z,100025.00
2022-08-25T20:33:59.925Z,100034.59
2022-08-25T20:36:50.813Z,100034.59
2022-08-25T20:39:40.840Z,100030.26
2022-08-25T20:42:29.410Z,100035.17
2022-08-25T20:45:21.229Z,100030.84
2022-08-25T20:48:09.273Z,100038.18
2022-08-25T20:50:58.041Z,100045.84
2022-08-25T20:53:45.940Z,100039.90
2022-08-25T20:56:34.681Z,100043.73
2022-08-25T20:59:23.392Z,100047.88
2022-08-25T21:02:12.549Z,100046.06
2022-08-25T21:05:04.161Z,100044.95
2022-08-25T21:07:52.842Z,100054.72
2022-08-25T21:10:41.685Z,100053.11
2022-08-25T21:13:32.137Z,100057.05
2022-08-25T21:16:20.766Z,100059.27
2022-08-25T21:19:11.810Z,100056.36
2022-08-25T21:22:00.624Z,100059.19
2022-08-25T21:24:50.922Z,100055.46
2022-08-25T21:27:38.882Z,100052.53
2022-08-25T21:30:28.631Z,100058.89
2022-08-25T21:33:17.141Z,100054.84
2022-08-25T21:36:09.851Z,100051.95
2022-08-25T21:39:00.812Z,100051.22
2022-08-25T21:41:49.466Z,100048.00
2022-08-25T21:44:37.637Z,100049.61
2022-08-25T21:47:26.007Z,100045.50
2022-08-25T21:50:14.318Z,100045.19
2022-08-25T21:53:03.147Z,100046.30
2022-08-25T21:55:51.431Z,100045.50
2022-08-25T21:58:39.981Z,100039.25
2022-08-25T22:01:28.990Z,100039.56
2022-08-25T22:04:17.230Z,100038.23
2022-08-25T22:07:06.386Z,100034.23
2022-08-25T22:09:54.558Z,100034.52
2022-08-25T22:12:43.602Z,100035.44
2022-08-25T22:15:31.460Z,100023.02
2022-08-25T22:18:20.468Z,100023.13
2022-08-25T22:21:09.625Z,100028.14
2022-08-25T22:24:00.507Z,100024.42
2022-08-25T22:26:49.286Z,100028.02
2022-08-25T22:29:37.354Z,100021.06
2022-08-25T22:32:25.555Z,100019.05
2022-08-25T22:35:14.393Z,100023.64
2022-08-25T22:38:03.224Z,100015.47
2022-08-25T22:40:51.423Z,100013.44
2022-08-25T22:43:40.550Z,100003.22
2022-08-25T22:46:30.545Z,100003.00
2022-08-25T22:49:19.219Z,100006.30
2022-08-25T22:52:11.515Z,100002.05
2022-08-25T22:55:02.300Z,99999.42
2022-08-25T22:57:50.659Z,100005.95
2022-08-25T23:00:43.402Z,100003.23
2022-08-25T23:03:31.916Z,100001.11
2022-08-25T23:06:24.958Z,100001.39
2022-08-25T23:09:13.382Z,99995.45
2022-08-25T23:12:02.317Z,99997.38
2022-08-25T23:14:50.900Z,99998.75
2022-08-25T23:17:39.271Z,99988.22
2022-08-25T23:20:45.850Z,99987.70
2022-08-25T23:23:36.566Z,100001.62
2022-08-25T23:26:26.063Z,99997.37
2022-08-25T23:29:17.713Z,99992.02
2022-08-25T23:32:08.043Z,99991.50
2022-08-25T23:34:56.359Z,99995.31
2022-08-25T23:37:44.475Z,99990.71
2022-08-25T23:40:34.452Z,99995.63
2022-08-25T23:43:23.598Z,99989.17
2022-08-25T23:46:12.861Z,99990.85
2022-08-25T23:49:01.819Z,99987.63
2022-08-25T23:51:52.886Z,99992.53
2022-08-25T23:54:41.311Z,99993.87
2022-08-25T23:57:31.453Z,99987.16
